sensor_id;sensor_type;location;lat;lon;timestamp;P1;durP1;ratioP1;P2;durP2;ratioP2
51560;SDS011;37654;51.262;17.058;2023-07-20T00:00:25;4.72;;;1.77;;
51560;SDS011;37654;51.262;17.058;2023-07-20T00:02:50;5.15;;;1.60;;
51560;SDS011;37654;51.262;17.058;2023-07-20T00:05:16;4.93;;;2.10;;
51560;SDS011;37654;51.262;17.058;2023-07-20T00:07:46;8.70;;;2.00;;
51560;SDS011;37654;51.262;17.058;2023-07-20T00:10:11;5.35;;;1.92;;
51560;SDS011;37654;51.262;17.058;2023-07-20T00:12:37;7.15;;;2.00;;
51560;SDS011;37654;51.262;17.058;2023-07-20T00:15:02;7.28;;;3.03;;
51560;SDS011;37654;51.262;17.058;2023-07-20T00:17:28;5.35;;;2.40;;
51560;SDS011;37654;51.262;17.058;2023-07-20T00:19:53;7.30;;;2.15;;
51560;SDS011;37654;51.262;17.058;2023-07-20T00:22:19;4.57;;;2.13;;
51560;SDS011;37654;51.262;17.058;2023-07-20T00:24:44;5.13;;;2.22;;
51560;SDS011;37654;51.262;17.058;2023-07-20T00:27:10;8.25;;;2.97;;
51560;SDS011;37654;51.262;17.058;2023-07-20T00:29:35;5.30;;;2.20;;
51560;SDS011;37654;51.262;17.058;2023-07-20T00:32:01;7.10;;;1.92;;
51560;SDS011;37654;51.262;17.058;2023-07-20T00:34:26;6.80;;;2.55;;
51560;SDS011;37654;51.262;17.058;2023-07-20T00:36:51;10.55;;;2.97;;
51560;SDS011;37654;51.262;17.058;2023-07-20T00:39:17;6.18;;;2.67;;
51560;SDS011;37654;51.262;17.058;2023-07-20T00:41:42;6.95;;;2.53;;
51560;SDS011;37654;51.262;17.058;2023-07-20T00:44:08;10.38;;;3.40;;
51560;SDS011;37654;51.262;17.058;2023-07-20T00:46:33;4.32;;;2.80;;
51560;SDS011;37654;51.262;17.058;2023-07-20T00:48:59;10.95;;;3.20;;
51560;SDS011;37654;51.262;17.058;2023-07-20T00:51:24;6.97;;;2.63;;
51560;SDS011;37654;51.262;17.058;2023-07-20T00:53:51;11.63;;;3.38;;
51560;SDS011;37654;51.262;17.058;2023-07-20T00:56:17;6.28;;;2.92;;
51560;SDS011;37654;51.262;17.058;2023-07-20T00:58:43;8.00;;;3.10;;
51560;SDS011;37654;51.262;17.058;2023-07-20T01:01:09;7.75;;;2.83;;
51560;SDS011;37654;51.262;17.058;2023-07-20T01:03:34;8.32;;;2.80;;
51560;SDS011;37654;51.262;17.058;2023-07-20T01:08:33;5.22;;;2.95;;
51560;SDS011;37654;51.262;17.058;2023-07-20T01:11:16;5.93;;;2.70;;
51560;SDS011;37654;51.262;17.058;2023-07-20T01:13:48;5.68;;;3.00;;
51560;SDS011;37654;51.262;17.058;2023-07-20T01:16:14;6.60;;;3.65;;
51560;SDS011;37654;51.262;17.058;2023-07-20T01:18:39;7.55;;;3.08;;
51560;SDS011;37654;51.262;17.058;2023-07-20T01:21:09;5.68;;;2.55;;
51560;SDS011;37654;51.262;17.058;2023-07-20T01:24:05;9.05;;;3.33;;
51560;SDS011;37654;51.262;17.058;2023-07-20T01:29:27;9.57;;;3.28;;
51560;SDS011;37654;51.262;17.058;2023-07-20T01:32:06;11.57;;;4.05;;
51560;SDS011;37654;51.262;17.058;2023-07-20T01:34:34;6.45;;;3.03;;
51560;SDS011;37654;51.262;17.058;2023-07-20T01:37:01;6.55;;;3.08;;
51560;SDS011;37654;51.262;17.058;2023-07-20T01:39:28;6.63;;;3.00;;
51560;SDS011;37654;51.262;17.058;2023-07-20T01:41:54;5.15;;;3.00;;
51560;SDS011;37654;51.262;17.058;2023-07-20T01:44:20;6.10;;;2.80;;
51560;SDS011;37654;51.262;17.058;2023-07-20T01:46:45;5.70;;;3.17;;
51560;SDS011;37654;51.262;17.058;2023-07-20T01:49:11;7.57;;;3.85;;
51560;SDS011;37654;51.262;17.058;2023-07-20T01:51:36;10.85;;;3.95;;
51560;SDS011;37654;51.262;17.058;2023-07-20T01:54:02;12.07;;;4.35;;
51560;SDS011;37654;51.262;17.058;2023-07-20T01:56:27;14.80;;;4.60;;
51560;SDS011;37654;51.262;17.058;2023-07-20T01:58:53;10.88;;;3.80;;
51560;SDS011;37654;51.262;17.058;2023-07-20T02:01:18;10.63;;;4.32;;
51560;SDS011;37654;51.262;17.058;2023-07-20T02:03:43;8.05;;;3.70;;
51560;SDS011;37654;51.262;17.058;2023-07-20T02:06:09;20.95;;;4.93;;
51560;SDS011;37654;51.262;17.058;2023-07-20T02:08:34;7.78;;;3.28;;
51560;SDS011;37654;51.262;17.058;2023-07-20T02:11:00;8.93;;;3.53;;
51560;SDS011;37654;51.262;17.058;2023-07-20T02:13:25;10.25;;;4.15;;
51560;SDS011;37654;51.262;17.058;2023-07-20T02:15:50;12.93;;;5.00;;
51560;SDS011;37654;51.262;17.058;2023-07-20T02:18:16;11.52;;;4.55;;
51560;SDS011;37654;51.262;17.058;2023-07-20T02:20:41;10.40;;;4.22;;
51560;SDS011;37654;51.262;17.058;2023-07-20T02:23:07;10.18;;;3.55;;
51560;SDS011;37654;51.262;17.058;2023-07-20T02:25:32;8.15;;;3.55;;
51560;SDS011;37654;51.262;17.058;2023-07-20T02:27:58;18.10;;;6.40;;
51560;SDS011;37654;51.262;17.058;2023-07-20T02:30:23;4.85;;;2.65;;
51560;SDS011;37654;51.262;17.058;2023-07-20T02:32:49;10.13;;;3.80;;
51560;SDS011;37654;51.262;17.058;2023-07-20T02:35:15;10.57;;;4.40;;
51560;SDS011;37654;51.262;17.058;2023-07-20T02:37:41;12.00;;;4.53;;
51560;SDS011;37654;51.262;17.058;2023-07-20T02:40:06;10.13;;;4.57;;
51560;SDS011;37654;51.262;17.058;2023-07-20T02:42:32;7.70;;;4.28;;
51560;SDS011;37654;51.262;17.058;2023-07-20T02:44:58;10.18;;;4.43;;
51560;SDS011;37654;51.262;17.058;2023-07-20T02:47:24;8.38;;;4.15;;
51560;SDS011;37654;51.262;17.058;2023-07-20T02:49:49;11.88;;;4.07;;
51560;SDS011;37654;51.262;17.058;2023-07-20T02:52:15;7.90;;;3.70;;
51560;SDS011;37654;51.262;17.058;2023-07-20T02:54:40;7.90;;;4.00;;
51560;SDS011;37654;51.262;17.058;2023-07-20T02:57:05;8.02;;;3.40;;
51560;SDS011;37654;51.262;17.058;2023-07-20T02:59:31;11.23;;;5.00;;
51560;SDS011;37654;51.262;17.058;2023-07-20T03:01:56;9.27;;;4.40;;
51560;SDS011;37654;51.262;17.058;2023-07-20T03:04:22;9.70;;;4.05;;
51560;SDS011;37654;51.262;17.058;2023-07-20T03:06:50;6.85;;;3.35;;
51560;SDS011;37654;51.262;17.058;2023-07-20T03:09:16;13.18;;;4.47;;
51560;SDS011;37654;51.262;17.058;2023-07-20T03:11:41;10.30;;;3.25;;
51560;SDS011;37654;51.262;17.058;2023-07-20T03:14:06;11.30;;;4.03;;
51560;SDS011;37654;51.262;17.058;2023-07-20T03:16:32;6.28;;;3.28;;
51560;SDS011;37654;51.262;17.058;2023-07-20T03:18:59;6.22;;;3.63;;
51560;SDS011;37654;51.262;17.058;2023-07-20T03:21:25;5.95;;;3.45;;
51560;SDS011;37654;51.262;17.058;2023-07-20T03:23:51;7.78;;;3.95;;
51560;SDS011;37654;51.262;17.058;2023-07-20T03:26:16;9.32;;;4.43;;
51560;SDS011;37654;51.262;17.058;2023-07-20T03:28:42;9.98;;;3.55;;
51560;SDS011;37654;51.262;17.058;2023-07-20T03:31:07;7.07;;;3.38;;
51560;SDS011;37654;51.262;17.058;2023-07-20T03:33:33;6.88;;;3.70;;
51560;SDS011;37654;51.262;17.058;2023-07-20T03:35:59;8.02;;;3.97;;
51560;SDS011;37654;51.262;17.058;2023-07-20T03:38:25;9.07;;;3.35;;
51560;SDS011;37654;51.262;17.058;2023-07-20T03:40:56;8.57;;;3.80;;
51560;SDS011;37654;51.262;17.058;2023-07-20T03:43:22;8.00;;;3.97;;
51560;SDS011;37654;51.262;17.058;2023-07-20T03:45:49;8.30;;;3.97;;
51560;SDS011;37654;51.262;17.058;2023-07-20T03:48:16;6.88;;;3.70;;
51560;SDS011;37654;51.262;17.058;2023-07-20T03:50:46;7.72;;;3.63;;
51560;SDS011;37654;51.262;17.058;2023-07-20T03:53:12;9.88;;;3.50;;
51560;SDS011;37654;51.262;17.058;2023-07-20T03:55:39;9.68;;;4.55;;
51560;SDS011;37654;51.262;17.058;2023-07-20T03:58:07;9.07;;;4.40;;
51560;SDS011;37654;51.262;17.058;2023-07-20T04:00:33;7.45;;;3.97;;
51560;SDS011;37654;51.262;17.058;2023-07-20T04:02:59;11.27;;;4.70;;
51560;SDS011;37654;51.262;17.058;2023-07-20T04:05:25;8.85;;;3.67;;
51560;SDS011;37654;51.262;17.058;2023-07-20T04:07:51;15.93;;;4.30;;
51560;SDS011;37654;51.262;17.058;2023-07-20T04:10:17;6.93;;;3.92;;
51560;SDS011;37654;51.262;17.058;2023-07-20T04:12:43;8.02;;;4.20;;
51560;SDS011;37654;51.262;17.058;2023-07-20T04:15:09;9.00;;;4.45;;
51560;SDS011;37654;51.262;17.058;2023-07-20T04:17:34;7.38;;;4.30;;
51560;SDS011;37654;51.262;17.058;2023-07-20T04:20:00;9.10;;;4.45;;
51560;SDS011;37654;51.262;17.058;2023-07-20T04:22:26;9.13;;;4.65;;
51560;SDS011;37654;51.262;17.058;2023-07-20T04:24:52;9.70;;;4.13;;
51560;SDS011;37654;51.262;17.058;2023-07-20T04:27:17;9.35;;;4.93;;
51560;SDS011;37654;51.262;17.058;2023-07-20T04:29:43;15.27;;;6.15;;
51560;SDS011;37654;51.262;17.058;2023-07-20T04:32:08;14.32;;;6.18;;
51560;SDS011;37654;51.262;17.058;2023-07-20T04:34:34;14.50;;;6.47;;
51560;SDS011;37654;51.262;17.058;2023-07-20T04:37:02;9.75;;;6.32;;
51560;SDS011;37654;51.262;17.058;2023-07-20T04:39:31;15.15;;;8.15;;
51560;SDS011;37654;51.262;17.058;2023-07-20T04:41:56;17.23;;;8.23;;
51560;SDS011;37654;51.262;17.058;2023-07-20T04:44:22;14.00;;;7.85;;
51560;SDS011;37654;51.262;17.058;2023-07-20T04:46:48;14.65;;;8.15;;
51560;SDS011;37654;51.262;17.058;2023-07-20T04:49:13;15.15;;;6.78;;
51560;SDS011;37654;51.262;17.058;2023-07-20T04:51:39;11.40;;;6.72;;
51560;SDS011;37654;51.262;17.058;2023-07-20T04:54:04;14.93;;;7.55;;
51560;SDS011;37654;51.262;17.058;2023-07-20T04:56:30;11.73;;;7.55;;
51560;SDS011;37654;51.262;17.058;2023-07-20T04:58:55;13.50;;;6.93;;
51560;SDS011;37654;51.262;17.058;2023-07-20T05:01:22;13.75;;;7.72;;
51560;SDS011;37654;51.262;17.058;2023-07-20T05:03:48;12.70;;;7.78;;
51560;SDS011;37654;51.262;17.058;2023-07-20T05:06:14;11.38;;;7.28;;
51560;SDS011;37654;51.262;17.058;2023-07-20T05:08:39;10.68;;;7.60;;
51560;SDS011;37654;51.262;17.058;2023-07-20T05:11:05;14.45;;;7.55;;
51560;SDS011;37654;51.262;17.058;2023-07-20T05:13:30;10.85;;;6.80;;
51560;SDS011;37654;51.262;17.058;2023-07-20T05:15:56;13.52;;;7.45;;
51560;SDS011;37654;51.262;17.058;2023-07-20T05:18:21;13.15;;;8.32;;
51560;SDS011;37654;51.262;17.058;2023-07-20T05:20:48;15.48;;;8.82;;
51560;SDS011;37654;51.262;17.058;2023-07-20T05:23:13;13.20;;;9.15;;
51560;SDS011;37654;51.262;17.058;2023-07-20T05:25:39;16.60;;;9.35;;
51560;SDS011;37654;51.262;17.058;2023-07-20T05:28:04;17.92;;;9.48;;
51560;SDS011;37654;51.262;17.058;2023-07-20T05:30:31;14.93;;;9.45;;
51560;SDS011;37654;51.262;17.058;2023-07-20T05:32:56;14.80;;;9.45;;
51560;SDS011;37654;51.262;17.058;2023-07-20T05:35:22;15.85;;;9.43;;
51560;SDS011;37654;51.262;17.058;2023-07-20T05:37:47;16.15;;;9.05;;
51560;SDS011;37654;51.262;17.058;2023-07-20T05:40:14;18.95;;;9.00;;
51560;SDS011;37654;51.262;17.058;2023-07-20T05:42:43;10.75;;;7.43;;
51560;SDS011;37654;51.262;17.058;2023-07-20T05:45:09;13.63;;;7.82;;
51560;SDS011;37654;51.262;17.058;2023-07-20T05:47:38;12.50;;;7.03;;
51560;SDS011;37654;51.262;17.058;2023-07-20T05:50:03;12.27;;;6.93;;
51560;SDS011;37654;51.262;17.058;2023-07-20T05:52:29;10.38;;;6.55;;
51560;SDS011;37654;51.262;17.058;2023-07-20T05:54:55;12.18;;;6.13;;
51560;SDS011;37654;51.262;17.058;2023-07-20T05:57:20;16.65;;;6.40;;
51560;SDS011;37654;51.262;17.058;2023-07-20T05:59:46;9.50;;;5.53;;
51560;SDS011;37654;51.262;17.058;2023-07-20T06:02:11;9.73;;;5.40;;
51560;SDS011;37654;51.262;17.058;2023-07-20T06:04:37;12.20;;;5.45;;
51560;SDS011;37654;51.262;17.058;2023-07-20T06:07:03;11.05;;;5.57;;
51560;SDS011;37654;51.262;17.058;2023-07-20T06:09:29;12.38;;;5.15;;
51560;SDS011;37654;51.262;17.058;2023-07-20T06:11:55;11.75;;;6.05;;
51560;SDS011;37654;51.262;17.058;2023-07-20T06:14:21;7.05;;;4.70;;
51560;SDS011;37654;51.262;17.058;2023-07-20T06:16:47;8.18;;;4.22;;
51560;SDS011;37654;51.262;17.058;2023-07-20T06:19:12;8.75;;;3.80;;
51560;SDS011;37654;51.262;17.058;2023-07-20T06:21:38;7.53;;;3.88;;
51560;SDS011;37654;51.262;17.058;2023-07-20T06:24:04;7.63;;;3.75;;
51560;SDS011;37654;51.262;17.058;2023-07-20T06:26:30;10.65;;;3.60;;
51560;SDS011;37654;51.262;17.058;2023-07-20T06:28:56;6.07;;;3.20;;
51560;SDS011;37654;51.262;17.058;2023-07-20T06:31:21;6.38;;;4.18;;
51560;SDS011;37654;51.262;17.058;2023-07-20T06:33:47;5.93;;;3.83;;
51560;SDS011;37654;51.262;17.058;2023-07-20T06:36:12;8.55;;;3.83;;
51560;SDS011;37654;51.262;17.058;2023-07-20T06:38:38;4.93;;;3.53;;
51560;SDS011;37654;51.262;17.058;2023-07-20T06:41:03;9.73;;;3.60;;
51560;SDS011;37654;51.262;17.058;2023-07-20T06:43:29;10.00;;;3.50;;
51560;SDS011;37654;51.262;17.058;2023-07-20T06:45:54;8.93;;;4.18;;
51560;SDS011;37654;51.262;17.058;2023-07-20T06:48:20;6.53;;;3.35;;
51560;SDS011;37654;51.262;17.058;2023-07-20T06:50:46;5.22;;;3.42;;
51560;SDS011;37654;51.262;17.058;2023-07-20T06:53:12;5.80;;;3.70;;
51560;SDS011;37654;51.262;17.058;2023-07-20T06:55:38;10.15;;;4.53;;
51560;SDS011;37654;51.262;17.058;2023-07-20T06:58:03;9.02;;;3.70;;
51560;SDS011;37654;51.262;17.058;2023-07-20T07:00:28;9.38;;;3.80;;
51560;SDS011;37654;51.262;17.058;2023-07-20T07:02:54;10.15;;;3.97;;
51560;SDS011;37654;51.262;17.058;2023-07-20T07:05:19;12.10;;;3.70;;
51560;SDS011;37654;51.262;17.058;2023-07-20T07:07:45;8.63;;;3.72;;
51560;SDS011;37654;51.262;17.058;2023-07-20T07:10:10;8.15;;;3.58;;
51560;SDS011;37654;51.262;17.058;2023-07-20T07:12:36;6.93;;;3.30;;
51560;SDS011;37654;51.262;17.058;2023-07-20T07:15:04;5.32;;;3.40;;
51560;SDS011;37654;51.262;17.058;2023-07-20T07:17:33;7.25;;;4.50;;
51560;SDS011;37654;51.262;17.058;2023-07-20T07:19:59;6.47;;;3.50;;
51560;SDS011;37654;51.262;17.058;2023-07-20T07:22:24;6.68;;;3.38;;
51560;SDS011;37654;51.262;17.058;2023-07-20T07:24:50;7.13;;;3.20;;
51560;SDS011;37654;51.262;17.058;2023-07-20T07:27:15;7.10;;;3.35;;
51560;SDS011;37654;51.262;17.058;2023-07-20T07:29:41;8.20;;;2.95;;
51560;SDS011;37654;51.262;17.058;2023-07-20T07:32:09;5.47;;;2.83;;
51560;SDS011;37654;51.262;17.058;2023-07-20T07:34:36;6.90;;;2.70;;
51560;SDS011;37654;51.262;17.058;2023-07-20T07:37:03;4.35;;;2.72;;
51560;SDS011;37654;51.262;17.058;2023-07-20T07:39:29;7.50;;;3.10;;
51560;SDS011;37654;51.262;17.058;2023-07-20T07:41:55;5.07;;;2.75;;
51560;SDS011;37654;51.262;17.058;2023-07-20T07:44:21;5.57;;;3.10;;
51560;SDS011;37654;51.262;17.058;2023-07-20T07:46:46;3.53;;;2.63;;
51560;SDS011;37654;51.262;17.058;2023-07-20T07:49:12;5.32;;;2.80;;
51560;SDS011;37654;51.262;17.058;2023-07-20T07:51:37;6.90;;;3.30;;
51560;SDS011;37654;51.262;17.058;2023-07-20T07:54:03;7.07;;;3.55;;
51560;SDS011;37654;51.262;17.058;2023-07-20T07:56:29;6.68;;;2.85;;
51560;SDS011;37654;51.262;17.058;2023-07-20T07:58:55;6.25;;;3.33;;
51560;SDS011;37654;51.262;17.058;2023-07-20T08:01:20;9.93;;;3.17;;
51560;SDS011;37654;51.262;17.058;2023-07-20T08:03:45;5.10;;;3.38;;
51560;SDS011;37654;51.262;17.058;2023-07-20T08:06:15;12.98;;;3.47;;
51560;SDS011;37654;51.262;17.058;2023-07-20T08:08:41;10.13;;;3.30;;
51560;SDS011;37654;51.262;17.058;2023-07-20T08:11:07;7.13;;;3.13;;
51560;SDS011;37654;51.262;17.058;2023-07-20T08:13:33;8.48;;;3.45;;
51560;SDS011;37654;51.262;17.058;2023-07-20T08:15:59;7.40;;;3.45;;
51560;SDS011;37654;51.262;17.058;2023-07-20T08:18:24;6.82;;;3.78;;
51560;SDS011;37654;51.262;17.058;2023-07-20T08:20:50;5.57;;;3.08;;
51560;SDS011;37654;51.262;17.058;2023-07-20T08:23:15;3.13;;;2.40;;
51560;SDS011;37654;51.262;17.058;2023-07-20T08:25:41;4.90;;;2.25;;
51560;SDS011;37654;51.262;17.058;2023-07-20T08:28:17;7.13;;;2.65;;
51560;SDS011;37654;51.262;17.058;2023-07-20T08:33:10;2.25;;;1.52;;
51560;SDS011;37654;51.262;17.058;2023-07-20T08:35:37;2.97;;;1.55;;
51560;SDS011;37654;51.262;17.058;2023-07-20T08:38:03;2.47;;;1.33;;
51560;SDS011;37654;51.262;17.058;2023-07-20T08:40:30;6.10;;;1.63;;
51560;SDS011;37654;51.262;17.058;2023-07-20T08:42:59;3.90;;;1.50;;
51560;SDS011;37654;51.262;17.058;2023-07-20T08:45:27;4.13;;;1.60;;
51560;SDS011;37654;51.262;17.058;2023-07-20T08:47:58;2.65;;;2.45;;
51560;SDS011;37654;51.262;17.058;2023-07-20T08:50:25;4.93;;;3.20;;
51560;SDS011;37654;51.262;17.058;2023-07-20T08:52:52;4.20;;;2.15;;
51560;SDS011;37654;51.262;17.058;2023-07-20T08:55:19;6.68;;;2.20;;
51560;SDS011;37654;51.262;17.058;2023-07-20T08:57:47;5.40;;;2.60;;
51560;SDS011;37654;51.262;17.058;2023-07-20T09:00:15;5.03;;;3.53;;
51560;SDS011;37654;51.262;17.058;2023-07-20T09:02:42;5.72;;;3.40;;
51560;SDS011;37654;51.262;17.058;2023-07-20T09:05:10;2.35;;;1.73;;
51560;SDS011;37654;51.262;17.058;2023-07-20T09:07:38;2.75;;;1.42;;
51560;SDS011;37654;51.262;17.058;2023-07-20T09:10:05;2.28;;;1.50;;
51560;SDS011;37654;51.262;17.058;2023-07-20T09:12:34;2.28;;;1.20;;
51560;SDS011;37654;51.262;17.058;2023-07-20T09:15:00;1.73;;;1.33;;
51560;SDS011;37654;51.262;17.058;2023-07-20T09:17:26;2.10;;;1.67;;
51560;SDS011;37654;51.262;17.058;2023-07-20T09:19:52;2.45;;;1.40;;
51560;SDS011;37654;51.262;17.058;2023-07-20T09:22:17;5.30;;;1.15;;
51560;SDS011;37654;51.262;17.058;2023-07-20T09:24:43;1.58;;;1.25;;
51560;SDS011;37654;51.262;17.058;2023-07-20T09:27:09;2.05;;;1.70;;
51560;SDS011;37654;51.262;17.058;2023-07-20T09:29:46;1.83;;;1.10;;
51560;SDS011;37654;51.262;17.058;2023-07-20T09:32:19;2.05;;;1.42;;
51560;SDS011;37654;51.262;17.058;2023-07-20T09:34:49;3.10;;;1.30;;
51560;SDS011;37654;51.262;17.058;2023-07-20T09:37:25;1.85;;;1.75;;
51560;SDS011;37654;51.262;17.058;2023-07-20T09:39:52;2.72;;;1.92;;
51560;SDS011;37654;51.262;17.058;2023-07-20T09:42:21;3.08;;;1.50;;
51560;SDS011;37654;51.262;17.058;2023-07-20T09:44:47;2.75;;;1.40;;
51560;SDS011;37654;51.262;17.058;2023-07-20T09:47:13;2.08;;;1.83;;
51560;SDS011;37654;51.262;17.058;2023-07-20T09:49:46;3.10;;;1.52;;
51560;SDS011;37654;51.262;17.058;2023-07-20T09:52:12;2.90;;;2.30;;
51560;SDS011;37654;51.262;17.058;2023-07-20T09:54:38;1.92;;;1.83;;
51560;SDS011;37654;51.262;17.058;2023-07-20T09:57:07;2.08;;;1.98;;
51560;SDS011;37654;51.262;17.058;2023-07-20T09:59:33;2.47;;;2.10;;
51560;SDS011;37654;51.262;17.058;2023-07-20T10:02:00;2.08;;;1.35;;
51560;SDS011;37654;51.262;17.058;2023-07-20T10:04:27;2.65;;;1.30;;
51560;SDS011;37654;51.262;17.058;2023-07-20T10:06:54;1.98;;;1.17;;
51560;SDS011;37654;51.262;17.058;2023-07-20T10:09:21;1.45;;;1.30;;
51560;SDS011;37654;51.262;17.058;2023-07-20T10:11:52;1.27;;;1.17;;
51560;SDS011;37654;51.262;17.058;2023-07-20T10:14:21;1.30;;;1.20;;
51560;SDS011;37654;51.262;17.058;2023-07-20T10:16:50;1.88;;;1.48;;
51560;SDS011;37654;51.262;17.058;2023-07-20T10:19:51;2.20;;;1.98;;
51560;SDS011;37654;51.262;17.058;2023-07-20T10:22:16;2.30;;;2.10;;
51560;SDS011;37654;51.262;17.058;2023-07-20T10:24:49;2.40;;;2.20;;
51560;SDS011;37654;51.262;17.058;2023-07-20T10:27:19;2.40;;;2.25;;
51560;SDS011;37654;51.262;17.058;2023-07-20T10:29:45;2.03;;;1.92;;
51560;SDS011;37654;51.262;17.058;2023-07-20T10:32:12;3.20;;;2.30;;
51560;SDS011;37654;51.262;17.058;2023-07-20T10:34:38;2.88;;;2.47;;
51560;SDS011;37654;51.262;17.058;2023-07-20T10:37:04;4.07;;;1.50;;
51560;SDS011;37654;51.262;17.058;2023-07-20T10:39:33;2.25;;;1.58;;
51560;SDS011;37654;51.262;17.058;2023-07-20T10:42:07;1.42;;;1.02;;
51560;SDS011;37654;51.262;17.058;2023-07-20T10:44:32;1.15;;;0.80;;
51560;SDS011;37654;51.262;17.058;2023-07-20T10:46:59;1.38;;;1.00;;
51560;SDS011;37654;51.262;17.058;2023-07-20T10:49:25;4.55;;;1.10;;
51560;SDS011;37654;51.262;17.058;2023-07-20T10:52:12;1.48;;;0.88;;
51560;SDS011;37654;51.262;17.058;2023-07-20T10:54:46;1.58;;;1.00;;
51560;SDS011;37654;51.262;17.058;2023-07-20T10:57:22;1.60;;;0.88;;
51560;SDS011;37654;51.262;17.058;2023-07-20T10:59:48;1.85;;;0.90;;
51560;SDS011;37654;51.262;17.058;2023-07-20T11:02:17;4.75;;;1.00;;
51560;SDS011;37654;51.262;17.058;2023-07-20T11:04:43;3.22;;;0.80;;
51560;SDS011;37654;51.262;17.058;2023-07-20T11:07:08;2.85;;;1.27;;
51560;SDS011;37654;51.262;17.058;2023-07-20T11:09:34;1.30;;;1.00;;
51560;SDS011;37654;51.262;17.058;2023-07-20T11:12:09;2.85;;;0.88;;
51560;SDS011;37654;51.262;17.058;2023-07-20T11:14:35;2.80;;;1.52;;
51560;SDS011;37654;51.262;17.058;2023-07-20T11:17:11;3.05;;;2.17;;
51560;SDS011;37654;51.262;17.058;2023-07-20T11:19:37;3.45;;;1.67;;
51560;SDS011;37654;51.262;17.058;2023-07-20T11:22:04;2.22;;;1.25;;
51560;SDS011;37654;51.262;17.058;2023-07-20T11:24:32;1.48;;;0.90;;
51560;SDS011;37654;51.262;17.058;2023-07-20T11:26:57;4.83;;;1.67;;
51560;SDS011;37654;51.262;17.058;2023-07-20T11:29:23;1.33;;;1.02;;
51560;SDS011;37654;51.262;17.058;2023-07-20T11:31:50;1.05;;;0.82;;
51560;SDS011;37654;51.262;17.058;2023-07-20T11:34:19;2.20;;;0.43;;
51560;SDS011;37654;51.262;17.058;2023-07-20T11:36:45;0.60;;;0.60;;
51560;SDS011;37654;51.262;17.058;2023-07-20T11:39:11;0.80;;;0.60;;
51560;SDS011;37654;51.262;17.058;2023-07-20T11:41:37;1.02;;;0.88;;
51560;SDS011;37654;51.262;17.058;2023-07-20T11:44:03;1.95;;;0.88;;
51560;SDS011;37654;51.262;17.058;2023-07-20T11:46:29;1.45;;;0.90;;
51560;SDS011;37654;51.262;17.058;2023-07-20T11:48:58;1.27;;;0.85;;
51560;SDS011;37654;51.262;17.058;2023-07-20T11:51:24;1.05;;;0.73;;
51560;SDS011;37654;51.262;17.058;2023-07-20T11:53:51;0.90;;;0.75;;
51560;SDS011;37654;51.262;17.058;2023-07-20T11:56:16;2.93;;;1.10;;
51560;SDS011;37654;51.262;17.058;2023-07-20T11:58:45;2.30;;;1.20;;
51560;SDS011;37654;51.262;17.058;2023-07-20T12:01:11;2.63;;;0.93;;
51560;SDS011;37654;51.262;17.058;2023-07-20T12:03:36;3.30;;;0.75;;
51560;SDS011;37654;51.262;17.058;2023-07-20T12:06:08;3.10;;;1.20;;
51560;SDS011;37654;51.262;17.058;2023-07-20T12:08:34;0.88;;;0.70;;
51560;SDS011;37654;51.262;17.058;2023-07-20T12:10:59;1.77;;;0.93;;
51560;SDS011;37654;51.262;17.058;2023-07-20T12:13:46;1.35;;;1.00;;
51560;SDS011;37654;51.262;17.058;2023-07-20T12:16:11;0.95;;;0.77;;
51560;SDS011;37654;51.262;17.058;2023-07-20T12:18:37;3.22;;;1.10;;
51560;SDS011;37654;51.262;17.058;2023-07-20T12:21:02;3.83;;;1.00;;
51560;SDS011;37654;51.262;17.058;2023-07-20T12:23:34;1.27;;;0.90;;
51560;SDS011;37654;51.262;17.058;2023-07-20T12:26:00;2.78;;;1.00;;
51560;SDS011;37654;51.262;17.058;2023-07-20T12:28:25;1.17;;;0.80;;
51560;SDS011;37654;51.262;17.058;2023-07-20T12:30:51;2.20;;;0.95;;
51560;SDS011;37654;51.262;17.058;2023-07-20T12:33:21;1.70;;;0.95;;
51560;SDS011;37654;51.262;17.058;2023-07-20T12:35:46;1.93;;;0.90;;
51560;SDS011;37654;51.262;17.058;2023-07-20T12:38:12;0.70;;;0.70;;
51560;SDS011;37654;51.262;17.058;2023-07-20T12:40:37;1.27;;;1.13;;
51560;SDS011;37654;51.262;17.058;2023-07-20T12:43:02;2.27;;;1.40;;
51560;SDS011;37654;51.262;17.058;2023-07-20T12:45:28;5.38;;;1.70;;
51560;SDS011;37654;51.262;17.058;2023-07-20T12:47:54;1.65;;;1.10;;
51560;SDS011;37654;51.262;17.058;2023-07-20T12:50:19;3.00;;;1.40;;
51560;SDS011;37654;51.262;17.058;2023-07-20T12:52:44;1.70;;;1.17;;
51560;SDS011;37654;51.262;17.058;2023-07-20T12:55:10;5.00;;;1.67;;
51560;SDS011;37654;51.262;17.058;2023-07-20T12:57:35;1.77;;;1.30;;
51560;SDS011;37654;51.262;17.058;2023-07-20T13:00:01;2.85;;;1.50;;
51560;SDS011;37654;51.262;17.058;2023-07-20T13:02:29;2.95;;;1.35;;
51560;SDS011;37654;51.262;17.058;2023-07-20T13:04:54;1.05;;;0.93;;
51560;SDS011;37654;51.262;17.058;2023-07-20T13:07:23;1.63;;;1.13;;
51560;SDS011;37654;51.262;17.058;2023-07-20T13:09:53;1.00;;;0.90;;
51560;SDS011;37654;51.262;17.058;2023-07-20T13:12:19;1.20;;;1.10;;
51560;SDS011;37654;51.262;17.058;2023-07-20T13:14:44;3.33;;;1.07;;
51560;SDS011;37654;51.262;17.058;2023-07-20T13:17:09;0.93;;;0.70;;
51560;SDS011;37654;51.262;17.058;2023-07-20T13:19:35;1.90;;;1.00;;
51560;SDS011;37654;51.262;17.058;2023-07-20T13:22:00;2.47;;;1.17;;
51560;SDS011;37654;51.262;17.058;2023-07-20T13:24:25;2.43;;;0.90;;
51560;SDS011;37654;51.262;17.058;2023-07-20T13:26:51;0.97;;;0.77;;
51560;SDS011;37654;51.262;17.058;2023-07-20T13:29:16;1.33;;;0.88;;
51560;SDS011;37654;51.262;17.058;2023-07-20T13:31:42;1.23;;;0.80;;
51560;SDS011;37654;51.262;17.058;2023-07-20T13:34:07;1.47;;;1.10;;
51560;SDS011;37654;51.262;17.058;2023-07-20T13:36:32;3.37;;;0.87;;
51560;SDS011;37654;51.262;17.058;2023-07-20T13:38:58;1.40;;;0.90;;
51560;SDS011;37654;51.262;17.058;2023-07-20T13:41:23;2.70;;;1.13;;
51560;SDS011;37654;51.262;17.058;2023-07-20T13:43:48;0.80;;;0.80;;
51560;SDS011;37654;51.262;17.058;2023-07-20T13:46:14;0.90;;;0.80;;
51560;SDS011;37654;51.262;17.058;2023-07-20T13:48:39;1.93;;;1.10;;
51560;SDS011;37654;51.262;17.058;2023-07-20T13:51:05;1.45;;;1.10;;
51560;SDS011;37654;51.262;17.058;2023-07-20T13:53:31;2.97;;;1.00;;
51560;SDS011;37654;51.262;17.058;2023-07-20T13:55:56;1.27;;;0.90;;
51560;SDS011;37654;51.262;17.058;2023-07-20T13:58:22;2.10;;;0.98;;
51560;SDS011;37654;51.262;17.058;2023-07-20T14:00:47;2.10;;;0.90;;
51560;SDS011;37654;51.262;17.058;2023-07-20T14:03:12;1.57;;;1.00;;
51560;SDS011;37654;51.262;17.058;2023-07-20T14:05:37;3.43;;;0.90;;
51560;SDS011;37654;51.262;17.058;2023-07-20T14:08:03;3.47;;;1.00;;
51560;SDS011;37654;51.262;17.058;2023-07-20T14:10:28;1.20;;;1.03;;
51560;SDS011;37654;51.262;17.058;2023-07-20T14:12:54;2.13;;;0.98;;
51560;SDS011;37654;51.262;17.058;2023-07-20T14:15:19;1.63;;;0.90;;
51560;SDS011;37654;51.262;17.058;2023-07-20T14:17:45;2.53;;;1.05;;
51560;SDS011;37654;51.262;17.058;2023-07-20T14:20:10;1.13;;;1.00;;
51560;SDS011;37654;51.262;17.058;2023-07-20T14:22:36;4.00;;;1.20;;
51560;SDS011;37654;51.262;17.058;2023-07-20T14:25:02;1.58;;;1.15;;
51560;SDS011;37654;51.262;17.058;2023-07-20T14:27:27;1.10;;;0.98;;
51560;SDS011;37654;51.262;17.058;2023-07-20T14:29:52;2.25;;;1.30;;
51560;SDS011;37654;51.262;17.058;2023-07-20T14:32:18;2.87;;;1.13;;
51560;SDS011;37654;51.262;17.058;2023-07-20T14:34:43;3.05;;;1.10;;